Startpagina
METAR-TAF:

METAR-TAF

Vliegvelden :

Internationale Luchthaven Antwerpen

Antwerpen, België

breedte: 51-12N, lengte: 004-28E, hoogte: 12 m

Actueel weer

Dit bericht is 18 minuten geleden gemaakt, om 12:20 UTC
Wind 14 kt uit het westzuidwesten
Temperatuur 11°C
Vochtigheid 82%
Druk 1024 hPa
Zicht 10 km of meer
Verspreide wolken op 1500 ft
Gebroken wolken op 1700 ft

METAR: EBAW 291220Z 25014KT 9999 SCT015 BKN017 11/08 Q1024 TEMPO 25015G25KT

Tijdstip: 13:38 (12:38 UTC)

Verwachting

Dit bericht is 1 uur en het 23 minuten geleden gemaakt, om 11:15 UTC
Verwachting geldig van 29 om 12 UTC tot 29 om 21 UTC
Wind 12 kt uit het westen
Zicht 10 km of meer
Verspreide wolken op 1200 ft
Gebroken wolken op 2000 ft
Kans 30% :
Tijdelijke
van 29 om 12 UTC tot 29 om 17 UTC
Wind 15 kt uit het westen met uitschieters tot 25 kt

TAF: EBAW 291115Z 2912/2921 26012KT 9999 SCT012 BKN020 PROB30 TEMPO 2912/2917 27015G25KT

Waarnemingen en weersverwachtingen van meer dan 4000 vliegvelden (METAR en TAF).

De beschikbare stations zijn de gele en rode punten op de kaart.

Ga met uw muis naar het station om de naam te zien.

Klik dan om waarnemingen en weersverwachtingen te zien.

kaart wijzigen: klik op de groene knoppen met een zwart kruis om in te zoomen, op de groene knop met een streepje om uit te zoomen of op de groene pijlen voor aangrenzende kaarten.


METAR-TAF: